WetterOnline ( https://www.wetteronline.ch )

Wetter aktuell Trostberg

Aktuelles Wetter: Chieming (553m)

6-stündlich | Neueste Meldungen
Ortszeit Temperatur Wetter
Di, 17.05. 2:00 15.7° C bewölkt
Mo, 16.05. 20:00 13.5° C Regen
Mo, 16.05. 14:00 20.3° C wolkig
Mo, 16.05. 8:00 15.4° C bedeckt
Mo, 16.05. 2:00 12.8° C wolkig
So, 15.05. 20:00 21.2° C wolkenlos
So, 15.05. 14:00 22.2° C wolkenlos
So, 15.05. 8:00 14.7° C leicht bewölkt
Ortszeit Temperatur Wetter
Di, 17.05. 5:00 15.9° C bedeckt
Di, 17.05. 4:50 15.9° C bedeckt
Di, 17.05. 4:40 15.6° C bedeckt
Di, 17.05. 4:30 15.7° C bewölkt
Di, 17.05. 4:20 15.7° C bewölkt
Di, 17.05. 4:10 15.6° C bedeckt
Di, 17.05. 4:00 15.8° C bewölkt
Di, 17.05. 3:30 15.5° C bedeckt
Di, 17.05. 3:00 15.2° C bewölkt
Di, 17.05. 2:30 15.4° C bewölkt
Di, 17.05. 2:00 15.7° C bewölkt
Ortszeit Relative Feuchte Sichtweite
Di, 17.05. 2:00 76% >70 km
Mo, 16.05. 20:00 94% 7 km
Mo, 16.05. 14:00 60% 65 km
Mo, 16.05. 8:00 85% 18 km
Mo, 16.05. 2:00 84% 55 km
So, 15.05. 20:00 51% 45 km
So, 15.05. 14:00 48% 55 km
So, 15.05. 8:00 76% 35 km
Ortszeit Relative Feuchte Sichtweite
Di, 17.05. 5:00 76% 55 km
Di, 17.05. 4:50 76% -
Di, 17.05. 4:40 78% -
Di, 17.05. 4:30 76% 60 km
Di, 17.05. 4:20 76% -
Di, 17.05. 4:10 77% -
Di, 17.05. 4:00 77% 60 km
Di, 17.05. 3:30 79% 60 km
Di, 17.05. 3:00 80% 65 km
Di, 17.05. 2:30 78% 60 km
Di, 17.05. 2:00 76% >70 km
Ortszeit Niederschlagsmenge Niederschlagsart
Di, 17.05. 2:00 2 l/m2 in 6 Std. Regen
Mo, 16.05. 20:00 3 l/m2 in 12 Std. Regen
Mo, 16.05. 14:00 0.0 l/m2 in 6 Std. -
Mo, 16.05. 8:00 0.0 l/m2 in 12 Std. -
Mo, 16.05. 2:00 0.0 l/m2 in 6 Std. -
So, 15.05. 20:00 0.0 l/m2 in 12 Std. -
So, 15.05. 14:00 0.4 l/m2 in 6 Std. Sprühregen
So, 15.05. 8:00 0.0 l/m2 in 12 Std. -
Ortszeit Niederschlagsmenge Niederschlagsart
Di, 17.05. 5:00 0.0 l/m2 in 1 Std. -
Di, 17.05. 4:50 keine Meldung -
Di, 17.05. 4:40 keine Meldung -
Di, 17.05. 4:30 0.0 l/m2 in 1 Std. -
Di, 17.05. 4:20 keine Meldung -
Di, 17.05. 4:10 keine Meldung -
Di, 17.05. 4:00 0.0 l/m2 in 1 Std. -
Di, 17.05. 3:30 0.0 l/m2 in 1 Std. -
Di, 17.05. 3:00 0.0 l/m2 in 1 Std. -
Di, 17.05. 2:30 0.0 l/m2 in 1 Std. -
Di, 17.05. 2:00 0.0 l/m2 in 1 Std. Regen
Ortszeit Stärke Spitze Richtung
km/h Bft. km/h Grad Sektor
Di, 17.05. 2:00 14 3 43 220° SW
Mo, 16.05. 20:00 7 2 61 170° S
Mo, 16.05. 14:00 20 4 41 250° W
Mo, 16.05. 8:00 7 2 11 70° O
Mo, 16.05. 2:00 7 2 14 80° O
So, 15.05. 20:00 7 2 25 50° NO
So, 15.05. 14:00 11 2 26 50° NO
So, 15.05. 8:00 4 1 7 60° NO
Ortszeit Stärke Spitze Richtung
km/h Bft. km/h Grad Sektor
Di, 17.05. 5:00 18 3 36 240° SW
Di, 17.05. 4:50 18 3 - 240° SW
Di, 17.05. 4:40 14 3 - 240° SW
Di, 17.05. 4:30 22 4 36 240° SW
Di, 17.05. 4:20 22 4 - 240° SW
Di, 17.05. 4:10 22 4 - 240° SW
Di, 17.05. 4:00 22 4 35 240° SW
Di, 17.05. 3:30 19 3 35 240° SW
Di, 17.05. 3:00 13 3 24 220° SW
Di, 17.05. 2:30 14 3 25 220° SW
Di, 17.05. 2:00 14 3 40 220° SW
Ortszeit Untergrenze Bedeckung Gattung
total tief tief mittel hoch
Di, 17.05. 2:00 1260 m 8/8 7/8 - - -
Mo, 16.05. 20:00 <30 m 8/8 0/8 - - -
Mo, 16.05. 14:00 2100 m 8/8 3/8 - - -
Mo, 16.05. 8:00 3600 m 8/8 8/8 - - -
Mo, 16.05. 2:00 9000 m 8/8 0/8 - - -
So, 15.05. 20:00 - 0/8 0/8 - - -
So, 15.05. 14:00 - 0/8 0/8 - - -
So, 15.05. 8:00 9000 m 4/8 0/8 - - -
Ortszeit Bedeckungsgrad in Achtel und Wolkenuntergrenze
Di, 17.05. 5:00 7(930m) 8(2100m) 8(5700m)
Di, 17.05. 4:50 7(930m) 8(2100m) 8(5700m)
Di, 17.05. 4:40 8
Di, 17.05. 4:30 4(870m) 7(2100m) 8(5700m)
Di, 17.05. 4:20 4(870m) 7(2100m) 8(5700m)
Di, 17.05. 4:10 8
Di, 17.05. 4:00 5(810m) 8(5700m) 8(8400m)
Di, 17.05. 3:30 7(4500m) 8(6000m) 8(7800m)
Di, 17.05. 3:00 7(1350m) 8(4200m) 8(5700m)
Di, 17.05. 2:30 4(1230m) 8(4800m) 8(9000m)
Di, 17.05. 2:00 7(1260m) 8(4800m) 8(9000m)
Ortszeit Luftdruck NN (hPa) Tendenz (hPa in 3 Std.)
Di, 17.05. 2:00 1021 - 0,5
Mo, 16.05. 20:00 1021 + 1,8
Mo, 16.05. 14:00 1019 + 0,6
Mo, 16.05. 8:00 1018 + 0,6
Mo, 16.05. 2:00 1017 - 0,2
So, 15.05. 20:00 1015 - 0,4
So, 15.05. 14:00 1017 - 0,9
So, 15.05. 8:00 1020 + 0,3
Ortszeit Luftdruck NN (hPa) Tendenz (hPa in 3 Std.)
Di, 17.05. 5:00 1021 + 0,2
Di, 17.05. 4:50 1021 keine Meldung
Di, 17.05. 4:40 1021 keine Meldung
Di, 17.05. 4:30 1021 + 0,2
Di, 17.05. 4:20 1021 keine Meldung
Di, 17.05. 4:10 1021 keine Meldung
Di, 17.05. 4:00 1021 + 0,6
Di, 17.05. 3:30 1021 + 0,5
Di, 17.05. 3:00 1021 + 0,4
Di, 17.05. 2:30 1021 0,0
Di, 17.05. 2:00 1021 - 0,5
Ortszeit Schneehöhe (cm)
Di, 17.05. 2:00 0
Mo, 16.05. 20:00 0
Mo, 16.05. 14:00 0
Mo, 16.05. 8:00 0
Mo, 16.05. 2:00 0
So, 15.05. 20:00 0
So, 15.05. 14:00 0
So, 15.05. 8:00 0
Ortszeit Schneehöhe (cm)
Di, 17.05. 5:00 0
Di, 17.05. 4:50 0
Di, 17.05. 4:40 0
Di, 17.05. 4:30 0
Di, 17.05. 4:20 0
Di, 17.05. 4:10 0
Di, 17.05. 4:00 0
Di, 17.05. 3:30 0
Di, 17.05. 3:00 0
Di, 17.05. 2:30 0
Di, 17.05. 2:00 0
Link zu dieser Seite / Seite empfehlen

Das Wetter in ...